createdAt,value
2018-01-02T00:00:46.650Z,84.92
2018-01-02T00:01:56.452Z,85.02
2018-01-02T00:03:06.531Z,84.64
2018-01-02T00:04:16.665Z,84.55
2018-01-02T00:05:26.722Z,84.55
2018-01-02T00:06:36.790Z,85.02
2018-01-02T00:07:46.892Z,84.83
2018-01-02T00:08:56.969Z,85.02
2018-01-02T00:10:07.025Z,84.83
2018-01-02T00:11:17.108Z,84.83
2018-01-02T00:12:27.172Z,84.64
2018-01-02T00:13:37.234Z,84.74
2018-01-02T00:14:47.290Z,84.55
2018-01-02T00:15:57.355Z,84.55
2018-01-02T00:17:07.164Z,84.55
2018-01-02T00:18:17.229Z,84.45
2018-01-02T00:19:27.020Z,84.45
2018-01-02T00:20:37.080Z,84.55
2018-01-02T00:21:47.148Z,84.83
2018-01-02T00:22:57.211Z,84.74
2018-01-02T00:24:07.328Z,84.45
2018-01-02T00:25:17.438Z,84.74
2018-01-02T00:26:27.481Z,84.74
2018-01-02T00:27:37.265Z,84.74
2018-01-02T00:28:47.320Z,84.74
2018-01-02T00:29:57.113Z,84.74
2018-01-02T00:31:07.217Z,84.69
2018-01-02T00:32:17.251Z,84.59
2018-01-02T00:33:27.295Z,84.55
2018-01-02T00:34:37.332Z,84.64
2018-01-02T00:35:47.400Z,84.59
2018-01-02T00:36:57.466Z,84.98
2018-01-02T00:38:07.533Z,84.59
2018-01-02T00:39:17.571Z,84.59
2018-01-02T00:40:27.633Z,84.78
2018-01-02T00:41:37.687Z,84.5
2018-01-02T00:42:47.740Z,84.69
2018-01-02T00:43:57.768Z,84.69
2018-01-02T00:45:07.568Z,84.78
2018-01-02T00:46:17.364Z,84.12
2018-01-02T00:47:27.417Z,84.41
2018-01-02T00:48:37.551Z,84.59
2018-01-02T00:49:47.614Z,84.5
2018-01-02T00:50:57.413Z,84.12
2018-01-02T00:52:07.483Z,84.41
2018-01-02T00:53:17.326Z,84.41
2018-01-02T00:54:27.427Z,84.5
2018-01-02T00:55:37.211Z,84.5
2018-01-02T00:56:47.289Z,84.41
2018-01-02T00:57:57.067Z,84.22
2018-01-02T00:59:06.862Z,84.31
2018-01-02T01:00:16.942Z,84.22
2018-01-02T01:01:26.571Z,84.22
2018-01-02T01:02:36.624Z,84.31
2018-01-02T01:03:46.427Z,84.12
2018-01-02T01:04:56.215Z,84.12
2018-01-02T01:06:06.312Z,84.03
2018-01-02T01:07:16.385Z,84.12
2018-01-02T01:08:26.476Z,84.03
2018-01-02T01:09:36.527Z,83.94
2018-01-02T01:10:46.612Z,84.31
2018-01-02T01:11:56.673Z,84.22
2018-01-02T01:13:06.489Z,84.22
2018-01-02T01:14:16.534Z,84.03
2018-01-02T01:15:26.571Z,84.08
2018-01-02T01:16:36.619Z,83.98
2018-01-02T01:17:46.684Z,84.17
2018-01-02T01:18:56.740Z,84.27
2018-01-02T01:20:06.822Z,84.27
2018-01-02T01:21:16.869Z,84.36
2018-01-02T01:22:26.424Z,84.46
2018-01-02T01:23:36.481Z,84.46
2018-01-02T01:24:46.590Z,84.27
2018-01-02T01:25:57.697Z,84.27
2018-01-02T01:27:07.754Z,84.46
2018-01-02T01:28:17.822Z,84.17
2018-01-02T01:29:27.883Z,83.89
2018-01-02T01:30:37.946Z,84.08
2018-01-02T01:31:48.001Z,83.8
2018-01-02T01:32:58.086Z,84.08
2018-01-02T01:34:08.139Z,84.12
2018-01-02T01:35:18.040Z,84.27
2018-01-02T01:36:27.584Z,84.08
2018-01-02T01:37:37.644Z,84.08
2018-01-02T01:38:47.686Z,83.51
2018-01-02T01:39:57.492Z,84.17
2018-01-02T01:41:07.344Z,84.17
2018-01-02T01:42:17.410Z,83.98
2018-01-02T01:43:27.482Z,84.08
2018-01-02T01:44:37.556Z,83.98
2018-01-02T01:45:47.361Z,84.08
2018-01-02T01:46:57.412Z,83.89
2018-01-02T01:48:07.470Z,83.98
2018-01-02T01:49:17.262Z,84.08
2018-01-02T01:50:27.307Z,83.98
2018-01-02T01:51:37.352Z,83.98
2018-01-02T01:52:47.455Z,84.17
2018-01-02T01:53:57.493Z,84.08
2018-01-02T01:55:07.311Z,84.08
2018-01-02T01:56:17.115Z,84.08
2018-01-02T01:57:27.177Z,83.8
2018-01-02T01:58:36.755Z,83.89
2018-01-02T01:59:46.268Z,83.51
2018-01-02T02:00:56.317Z,83.8
2018-01-02T02:02:06.365Z,83.7
2018-01-02T02:03:16.411Z,84.08
2018-01-02T02:04:26.453Z,83.51
2018-01-02T02:05:36.498Z,84.27
2018-01-02T02:06:46.553Z,83.98
2018-01-02T02:07:56.609Z,83.98
2018-01-02T02:09:06.654Z,83.89
2018-01-02T02:10:16.707Z,83.89
2018-01-02T02:11:26.764Z,83.98
2018-01-02T02:12:36.812Z,84.27
2018-01-02T02:13:46.854Z,83.8
2018-01-02T02:14:56.916Z,84.08
2018-01-02T02:16:07.026Z,84.27
2018-01-02T02:17:17.065Z,84.27
2018-01-02T02:18:26.849Z,84.27
2018-01-02T02:19:36.882Z,84.17
2018-01-02T02:20:46.939Z,83.98
2018-01-02T02:21:56.731Z,84.17
2018-01-02T02:23:06.832Z,84.17
2018-01-02T02:24:16.893Z,84.27
2018-01-02T02:25:26.935Z,84.27
2018-01-02T02:26:37.019Z,84.27
2018-01-02T02:27:46.556Z,83.61
2018-01-02T02:28:56.618Z,83.89
2018-01-02T02:30:06.665Z,83.61
2018-01-02T02:31:16.710Z,83.7
2018-01-02T02:32:26.501Z,83.7
2018-01-02T02:33:36.556Z,83.42
2018-01-02T02:34:46.376Z,83.61
2018-01-02T02:35:56.171Z,83.51
2018-01-02T02:37:06.021Z,83.98
2018-01-02T02:38:15.796Z,83.51
2018-01-02T02:39:25.899Z,83.7
2018-01-02T02:40:35.944Z,83.51
2018-01-02T02:41:45.740Z,83.32
2018-01-02T02:42:55.548Z,83.17
2018-01-02T02:44:05.593Z,83.08
2018-01-02T02:45:15.645Z,83.17
2018-01-02T02:46:25.702Z,83.27
2018-01-02T02:47:35.487Z,83.17
2018-01-02T02:48:45.566Z,83.08
2018-01-02T02:49:55.383Z,83.46
2018-01-02T02:51:05.446Z,83.17
2018-01-02T02:52:15.498Z,83.94
2018-01-02T02:53:25.318Z,83.36
2018-01-02T02:54:35.377Z,83.17
2018-01-02T02:55:45.434Z,83.65
2018-01-02T02:56:55.485Z,83.27
2018-01-02T02:58:05.535Z,83.27
2018-01-02T02:59:15.596Z,83.27
2018-01-02T03:00:25.667Z,83.74
2018-01-02T03:01:35.729Z,84.03
2018-01-02T03:34:09.159Z,80.64
2018-01-02T03:35:19.215Z,80.93
2018-01-02T03:36:28.996Z,81.87
2018-01-02T03:37:39.024Z,81.96
2018-01-02T03:38:49.059Z,83.24
2018-01-02T03:39:58.907Z,83.86
2018-01-02T03:41:08.961Z,84.28
2018-01-02T03:42:18.767Z,84.56
2018-01-02T03:43:28.828Z,85.04
2018-01-02T03:44:38.602Z,84.66
2018-01-02T03:45:48.409Z,85.36
2018-01-02T03:46:58.503Z,85.36
2018-01-02T03:48:07.770Z,85.36
2018-01-02T03:49:17.306Z,85.17
2018-01-02T03:50:27.365Z,84.8
2018-01-02T03:51:37.150Z,84.94
2018-01-02T03:52:47.204Z,84.55
2018-01-02T03:53:56.995Z,84.55
2018-01-02T03:55:07.060Z,84.65
2018-01-02T03:56:17.108Z,84.65
2018-01-02T03:57:27.175Z,84.65
2018-01-02T03:58:36.955Z,84.78
2018-01-02T03:59:47.008Z,84.78
2018-01-02T04:00:57.285Z,84.69
2018-01-02T04:02:07.342Z,84.98
2018-01-02T04:03:17.392Z,84.88
2018-01-02T04:04:27.187Z,84.69
2018-01-02T04:05:37.242Z,84.69
2018-01-02T04:06:47.035Z,84.41
2018-01-02T04:07:57.101Z,84.41
2018-01-02T04:09:07.161Z,84.41
2018-01-02T04:10:17.206Z,84.36
2018-01-02T04:11:27.261Z,83.97
2018-01-02T04:12:37.315Z,84.26
2018-01-02T04:13:47.361Z,84.64
2018-01-02T04:14:57.478Z,84.45
2018-01-02T04:16:07.262Z,84.64
2018-01-02T04:17:16.793Z,84.64
2018-01-02T04:18:26.830Z,84.64
2018-01-02T04:19:36.871Z,84.17
2018-01-02T04:20:46.561Z,84.45
2018-01-02T04:21:56.602Z,84.45
2018-01-02T04:23:06.386Z,84.45
2018-01-02T04:24:16.433Z,84.55
2018-01-02T04:25:26.473Z,84.64
2018-01-02T04:26:36.299Z,84.64
2018-01-02T04:27:46.330Z,84.64
2018-01-02T04:28:56.109Z,84.55
2018-01-02T04:30:06.164Z,84.45
2018-01-02T04:31:16.211Z,84.45
2018-01-02T04:32:26.267Z,84.45
2018-01-02T04:33:36.304Z,84.45
2018-01-02T04:34:46.375Z,84.64
2018-01-02T04:35:56.422Z,84.55
2018-01-02T04:37:06.213Z,84.45
2018-01-02T04:38:16.244Z,84.17
2018-01-02T04:39:26.294Z,84.45
2018-01-02T04:40:36.340Z,84.55
2018-01-02T04:41:46.119Z,84.45
2018-01-02T04:42:55.902Z,84.55
2018-01-02T04:44:05.947Z,84.4
2018-01-02T04:45:15.532Z,84.68
2018-01-02T04:46:25.568Z,84.4
2018-01-02T04:47:35.611Z,84.3
2018-01-02T04:48:45.673Z,84.3
2018-01-02T04:49:55.462Z,84.21
2018-01-02T04:51:05.507Z,84.4
2018-01-02T04:52:15.036Z,84.4
2018-01-02T04:53:25.088Z,84.59
2018-01-02T04:54:35.127Z,84.49
2018-01-02T04:55:44.961Z,84.4
2018-01-02T04:56:55.018Z,84.4
2018-01-02T04:58:04.804Z,84.49
2018-01-02T04:59:14.848Z,84.49
2018-01-02T05:00:24.894Z,84.59
2018-01-02T05:01:35.000Z,84.78
2018-01-02T05:02:45.044Z,84.78
2018-01-02T05:03:54.836Z,84.49
2018-01-02T05:05:04.886Z,84.68
2018-01-02T05:06:14.946Z,84.49
2018-01-02T05:07:24.737Z,84.87
2018-01-02T05:08:34.263Z,84.78
2018-01-02T05:09:43.792Z,84.68
2018-01-02T05:10:53.848Z,84.78
2018-01-02T05:12:03.906Z,84.78
2018-01-02T05:13:13.707Z,84.59
2018-01-02T05:14:23.753Z,84.59
2018-01-02T05:15:33.802Z,84.49
2018-01-02T05:16:43.598Z,84.78
2018-01-02T05:17:53.654Z,84.68
2018-01-02T05:19:03.716Z,84.59
2018-01-02T05:20:13.518Z,84.49
2018-01-02T05:21:23.303Z,84.49
2018-01-02T05:22:33.364Z,84.49
2018-01-02T05:23:43.418Z,84.59
2018-01-02T05:24:53.008Z,84.78
2018-01-02T05:26:03.057Z,84.59
2018-01-02T05:27:13.095Z,84.21
2018-01-02T05:28:23.164Z,84.49
2018-01-02T05:29:33.206Z,84.21
2018-01-02T05:30:43.066Z,84.68
2018-01-02T05:31:52.878Z,84.78
2018-01-02T05:33:02.934Z,84.78
2018-01-02T05:34:12.974Z,84.78
2018-01-02T05:35:22.773Z,84.59
2018-01-02T05:36:32.892Z,84.87
2018-01-02T05:37:42.937Z,84.78
2018-01-02T05:38:52.982Z,84.59
2018-01-02T05:40:03.044Z,84.68
2018-01-02T05:41:13.104Z,84.97
2018-01-02T05:42:22.901Z,84.78
2018-01-02T05:43:33.019Z,84.68
2018-01-02T05:44:43.070Z,84.78
2018-01-02T05:45:53.131Z,84.78
2018-01-02T05:47:03.169Z,84.78
2018-01-02T05:48:12.962Z,84.68
2018-01-02T05:49:23.004Z,84.68
2018-01-02T05:50:32.794Z,84.49
2018-01-02T05:51:42.835Z,84.3
2018-01-02T05:52:52.638Z,84.49
2018-01-02T05:54:02.734Z,84.49
2018-01-02T05:55:12.791Z,84.4
2018-01-02T05:56:22.842Z,84.82
2018-01-02T05:57:32.895Z,84.53
2018-01-02T05:58:42.939Z,84.44
2018-01-02T05:59:53.070Z,84.34
2018-01-02T06:01:03.125Z,84.25
2018-01-02T06:02:13.178Z,84.48
2018-01-02T06:03:22.958Z,84.48
2018-01-02T06:04:33.007Z,84.67
2018-01-02T06:05:42.851Z,84.58
2018-01-02T06:06:52.643Z,84.62
2018-01-02T06:08:02.744Z,84.81
2018-01-02T06:09:12.281Z,85.19
2018-01-02T06:10:22.060Z,84.81
2018-01-02T06:11:32.151Z,85.28
2018-01-02T06:12:41.938Z,85.47
2018-01-02T06:13:52.008Z,85.57
2018-01-02T06:15:02.069Z,85.61
2018-01-02T06:16:12.103Z,85.99
2018-01-02T06:17:21.958Z,85.8
2018-01-02T06:18:32.019Z,85.9
2018-01-02T06:19:42.089Z,86.28
2018-01-02T06:20:52.136Z,86.57
2018-01-02T06:22:02.192Z,86.94
2018-01-02T06:23:11.981Z,85.99
2018-01-02T06:24:22.030Z,86.76
2018-01-02T06:25:32.072Z,86.57
2018-01-02T06:26:42.127Z,86.38
2018-01-02T06:27:52.173Z,86.66
2018-01-02T06:29:02.229Z,86.38
2018-01-02T06:30:12.303Z,86.94
2018-01-02T06:31:22.362Z,86.66
2018-01-02T06:32:32.402Z,86.47
2018-01-02T06:33:42.454Z,86.57
2018-01-02T06:34:52.582Z,86.47
2018-01-02T06:36:02.256Z,86.9
2018-01-02T06:37:12.316Z,87.23
2018-01-02T06:38:22.355Z,86.8
2018-01-02T06:39:32.432Z,86.8
2018-01-02T06:40:42.553Z,86.76
2018-01-02T06:41:52.603Z,86.99
2018-01-02T06:43:02.646Z,86.99
2018-01-02T06:44:12.689Z,86.9
2018-01-02T06:45:22.508Z,86.8
2018-01-02T06:46:32.558Z,86.99
2018-01-02T06:47:42.350Z,86.61
2018-01-02T06:48:52.460Z,87.27
2018-01-02T06:50:02.504Z,87.46
2018-01-02T06:51:12.558Z,87.27
2018-01-02T06:52:23.302Z,87.27
2018-01-02T06:53:32.834Z,87.27
2018-01-02T06:54:42.885Z,86.61
2018-01-02T06:55:52.927Z,86.7
2018-01-02T06:57:02.975Z,86.7
2018-01-02T06:58:13.020Z,86.99
2018-01-02T06:59:23.103Z,86.9
2018-01-02T07:00:32.957Z,86.99
2018-01-02T07:01:42.702Z,86.9
2018-01-02T07:02:52.477Z,86.9
2018-01-02T07:04:02.525Z,86.75
2018-01-02T07:05:12.623Z,86.61
2018-01-02T07:06:22.672Z,86.8
2018-01-02T07:07:32.715Z,86.8
2018-01-02T07:08:42.792Z,87.08
2018-01-02T07:09:52.595Z,87.46
2018-01-02T07:11:02.378Z,86.9
2018-01-02T07:12:12.432Z,86.9
2018-01-02T07:13:22.490Z,86.9
2018-01-02T07:14:32.559Z,86.9
2018-01-02T07:15:42.606Z,86.65
2018-01-02T07:16:52.681Z,87.51
2018-01-02T07:18:02.746Z,87.51
2018-01-02T07:19:12.801Z,87.46
2018-01-02T07:20:22.847Z,87.27
2018-01-02T07:21:32.651Z,86.9
2018-01-02T07:22:42.438Z,86.9
2018-01-02T07:23:52.256Z,86.84
2018-01-02T07:25:02.324Z,87.03
2018-01-02T07:26:12.391Z,87.03
2018-01-02T07:27:22.446Z,86.8
2018-01-02T07:28:32.527Z,86.84
2018-01-02T07:29:42.300Z,86.75
2018-01-02T07:30:52.347Z,86.75
2018-01-02T07:32:02.421Z,86.75
2018-01-02T07:33:12.530Z,86.94
2018-01-02T07:34:22.580Z,86.55
2018-01-02T07:35:32.626Z,86.46
2018-01-02T07:36:42.662Z,86.65
2018-01-02T07:37:52.696Z,86.75
2018-01-02T07:39:02.789Z,86.46
2018-01-02T07:40:12.849Z,86.84
2018-01-02T07:41:22.921Z,86.55
2018-01-02T07:42:32.721Z,86.65
2018-01-02T07:43:42.505Z,86.36
2018-01-02T07:44:52.035Z,86.32
2018-01-02T07:46:01.857Z,86.08
2018-01-02T07:47:11.917Z,86.98
2018-01-02T07:48:21.716Z,86.51
2018-01-02T07:49:31.784Z,86.12
2018-01-02T07:50:41.923Z,86.03
2018-01-02T07:51:51.985Z,86.88
2018-01-02T07:53:02.034Z,86.12
2018-01-02T07:54:11.835Z,86.12
2018-01-02T07:55:21.892Z,86.22
2018-01-02T07:56:31.695Z,86.12
2018-01-02T07:57:41.741Z,86.88
2018-01-02T07:58:51.783Z,86.22
2018-01-02T08:00:01.850Z,86.32
2018-01-02T08:01:11.897Z,86.26
2018-01-02T08:02:21.692Z,86.07
2018-01-02T08:03:31.737Z,85.88
2018-01-02T08:04:41.535Z,85.78
2018-01-02T08:05:51.585Z,85.88
2018-01-02T08:07:01.642Z,85.69
2018-01-02T08:08:11.702Z,85.64
2018-01-02T08:09:21.777Z,85.93
2018-01-02T08:10:31.836Z,85.73
2018-01-02T08:11:41.366Z,85.73
2018-01-02T08:12:51.502Z,85.73
2018-01-02T08:14:01.612Z,86.02
2018-01-02T08:15:11.663Z,85.73
2018-01-02T08:16:21.717Z,85.93
2018-01-02T08:17:31.766Z,85.93
2018-01-02T08:18:41.813Z,85.45
2018-01-02T08:19:51.605Z,85.35
2018-01-02T08:21:01.650Z,85.39
2018-01-02T08:22:11.469Z,85.39
2018-01-02T08:23:21.529Z,85.01
2018-01-02T08:24:31.580Z,85.3
2018-01-02T08:25:41.632Z,85.21
2018-01-02T08:26:51.711Z,85.49
2018-01-02T08:28:01.813Z,85.21
2018-01-02T08:29:11.874Z,85.11
2018-01-02T08:30:21.669Z,85.25
2018-01-02T08:31:31.823Z,84.67
2018-01-02T08:32:41.870Z,84.86
2018-01-02T08:33:51.712Z,84.86
2018-01-02T08:35:01.793Z,84.58
2018-01-02T08:36:11.328Z,84.43
2018-01-02T08:37:22.434Z,84.52
2018-01-02T08:38:32.481Z,84.72
2018-01-02T08:39:42.518Z,84.62
2018-01-02T08:40:52.297Z,84.72
2018-01-02T08:42:02.085Z,84.62
2018-01-02T08:43:12.152Z,84.91
2018-01-02T08:44:21.926Z,85.29
2018-01-02T08:45:31.996Z,85.1
2018-01-02T08:46:42.045Z,84.76
2018-01-02T08:47:52.097Z,84.76
2018-01-02T08:49:01.902Z,84.85
2018-01-02T08:50:11.689Z,84.95
2018-01-02T08:51:21.465Z,84.76
2018-01-02T08:52:31.515Z,84.7
2018-01-02T08:53:41.550Z,84.23
2018-01-02T08:54:51.106Z,84.42
2018-01-02T08:56:01.162Z,84.7
2018-01-02T08:57:11.210Z,84.89
2018-01-02T08:58:21.262Z,85.28
2018-01-02T08:59:31.072Z,85.38
2018-01-02T09:00:41.174Z,85.42
2018-01-02T09:01:51.824Z,85.24
2018-01-02T09:03:01.905Z,85.33
2018-01-02T09:04:11.709Z,86.1
2018-01-02T09:05:21.240Z,85.9
2018-01-02T09:06:31.317Z,85.62
2018-01-02T09:07:41.120Z,85.62
2018-01-02T09:08:51.172Z,85.71
2018-01-02T09:10:00.448Z,85.62
2018-01-02T09:11:10.506Z,85.62
2018-01-02T09:12:20.306Z,85.81
2018-01-02T09:13:30.357Z,86.1
2018-01-02T09:14:40.462Z,85.81
2018-01-02T09:15:50.525Z,85.9
2018-01-02T09:17:00.601Z,85.9
2018-01-02T09:18:10.700Z,85.81
2018-01-02T09:19:20.503Z,86.05
2018-01-02T09:20:30.559Z,85.86
2018-01-02T09:21:40.668Z,85.96
2018-01-02T09:22:50.791Z,86.05
2018-01-02T09:24:00.840Z,85.86
2018-01-02T09:25:10.902Z,85.86
2018-01-02T09:26:20.699Z,85.96
2018-01-02T09:27:30.765Z,86.05
2018-01-02T09:28:40.831Z,85.67
2018-01-02T09:29:50.868Z,85.77
2018-01-02T09:31:00.921Z,85.67
2018-01-02T09:32:10.966Z,85.77
2018-01-02T09:33:20.754Z,85.77
2018-01-02T09:34:30.799Z,85.77
2018-01-02T09:35:40.863Z,85.96
2018-01-02T09:36:50.694Z,85.86
2018-01-02T09:38:00.740Z,85.96
2018-01-02T09:39:10.549Z,86.39
2018-01-02T09:40:20.678Z,85.86
2018-01-02T09:41:30.741Z,86.1
2018-01-02T09:42:41.501Z,86.01
2018-01-02T09:43:51.299Z,86.39
2018-01-02T09:45:01.347Z,86.01
2018-01-02T09:46:11.430Z,85.91
2018-01-02T09:47:21.499Z,85.91
2018-01-02T09:48:31.548Z,85.91
2018-01-02T09:49:41.619Z,86.1
2018-01-02T09:50:51.685Z,85.82
2018-01-02T09:52:01.749Z,85.44
2018-01-02T09:53:11.799Z,85.53
2018-01-02T09:54:21.869Z,85.1
2018-01-02T09:55:31.655Z,85.19
2018-01-02T09:56:41.708Z,85.48
2018-01-02T09:57:51.786Z,85.38
2018-01-02T09:59:01.891Z,85.19
2018-01-02T10:00:11.695Z,85
2018-01-02T10:01:21.747Z,85.48
2018-01-02T10:02:31.804Z,84.91
2018-01-02T10:03:41.867Z,85.29
2018-01-02T10:04:51.961Z,85.48
2018-01-02T10:06:01.759Z,85.48
2018-01-02T10:07:11.551Z,85.29
2018-01-02T10:08:21.597Z,85.19
2018-01-02T10:09:31.413Z,85.1
2018-01-02T10:10:41.470Z,85.38
2018-01-02T10:11:51.537Z,85.19
2018-01-02T10:13:01.587Z,85.58
2018-01-02T10:14:11.394Z,85.29
2018-01-02T10:15:21.452Z,85.77
2018-01-02T10:16:31.251Z,85.1
2018-01-02T10:17:41.311Z,85.19
2018-01-02T10:18:51.418Z,85.29
2018-01-02T10:20:01.464Z,85.29
2018-01-02T10:21:11.512Z,84.91
2018-01-02T10:22:21.407Z,85.19
2018-01-02T10:23:31.476Z,85.29
2018-01-02T10:24:41.281Z,85.29
2018-01-02T10:25:51.337Z,85.1
2018-01-02T10:27:00.614Z,85.29
2018-01-02T10:28:10.675Z,85.1
2018-01-02T10:29:20.727Z,85.29
2018-01-02T10:30:30.768Z,85.29
2018-01-02T10:31:40.827Z,85.29
2018-01-02T10:32:50.880Z,85.38
2018-01-02T10:34:00.960Z,85.38
2018-01-02T10:35:11.020Z,85.58
2018-01-02T10:36:20.834Z,85.38
2018-01-02T10:37:30.883Z,85.1
2018-01-02T10:38:40.988Z,84.91
2018-01-02T10:39:51.049Z,84.43
2018-01-02T10:41:01.092Z,84.76
2018-01-02T10:42:11.199Z,84.95
2018-01-02T10:43:21.260Z,84.81
2018-01-02T10:44:31.303Z,84.91
2018-01-02T10:45:41.347Z,85
2018-01-02T10:46:51.149Z,85.29
2018-01-02T10:48:01.204Z,85.05
2018-01-02T10:49:11.293Z,85.1
2018-01-02T10:50:21.342Z,84.76
2018-01-02T10:51:31.391Z,84.76
2018-01-02T10:52:41.439Z,84.56
2018-01-02T10:53:51.490Z,84.66
2018-01-02T10:55:01.297Z,84.38
2018-01-02T10:56:11.366Z,84.95
2018-01-02T10:57:21.446Z,84.19
2018-01-02T10:58:31.506Z,84.19
2018-01-02T10:59:41.304Z,84.19
2018-01-02T11:00:51.375Z,83.99
2018-01-02T11:02:01.447Z,83.99
2018-01-02T11:03:11.531Z,83.99
2018-01-02T11:04:21.348Z,84.09
2018-01-02T11:05:31.143Z,84.47
2018-01-02T11:06:41.208Z,84.56
2018-01-02T11:07:51.270Z,84.76
2018-01-02T11:09:01.326Z,84.66
2018-01-02T11:10:11.376Z,84.95
2018-01-02T11:11:21.441Z,85.24
2018-01-02T11:12:31.520Z,85.05
2018-01-02T11:13:41.568Z,84.85
2018-01-02T11:14:51.622Z,85.05
2018-01-02T11:16:01.750Z,84.95
2018-01-02T11:17:11.808Z,84.85
2018-01-02T11:18:21.874Z,85.14
2018-01-02T11:19:31.940Z,85.05
2018-01-02T11:20:41.740Z,85.05
2018-01-02T11:21:51.539Z,84.95
2018-01-02T11:23:01.621Z,84.95
2018-01-02T11:24:11.672Z,84.62
2018-01-02T11:25:21.483Z,85.29
2018-01-02T11:26:31.545Z,85.19
2018-01-02T11:27:41.637Z,85.38
2018-01-02T11:28:51.697Z,85.48
2018-01-02T11:30:01.285Z,85.48
2018-01-02T11:31:11.350Z,85.58
2018-01-02T11:32:21.422Z,85.58
2018-01-02T11:33:31.224Z,85.58
2018-01-02T11:34:41.284Z,85.58
2018-01-02T11:35:51.078Z,85.29
2018-01-02T11:37:00.932Z,85.29
2018-01-02T11:38:11.019Z,85.29
2018-01-02T11:39:21.082Z,85.29
2018-01-02T11:40:31.144Z,85.1
2018-01-02T11:41:41.424Z,85.1
2018-01-02T11:42:51.532Z,85.1
2018-01-02T11:44:01.580Z,85.29
2018-01-02T11:45:11.647Z,85.19
2018-01-02T11:46:21.718Z,84.72
2018-01-02T11:47:31.507Z,85.19
2018-01-02T11:48:41.622Z,85.19
2018-01-02T11:49:51.712Z,85.19
2018-01-02T11:51:01.779Z,85.19
2018-01-02T11:52:11.869Z,85
2018-01-02T11:53:21.673Z,85.19
2018-01-02T11:54:31.220Z,85
2018-01-02T11:55:41.303Z,85
2018-01-02T11:56:51.123Z,85
2018-01-02T11:58:01.207Z,85.1
2018-01-02T11:59:11.273Z,85
2018-01-02T12:00:21.320Z,85
2018-01-02T12:01:31.376Z,85.1
2018-01-02T12:02:41.439Z,85.1
2018-01-02T12:03:51.486Z,84.91
2018-01-02T12:05:01.304Z,84.52
2018-01-02T12:06:11.351Z,84.62
2018-01-02T12:07:21.422Z,84.72
2018-01-02T12:08:30.968Z,84.72
2018-01-02T12:09:41.043Z,84.62
2018-01-02T12:10:50.846Z,84.52
2018-01-02T12:12:00.662Z,84.62
2018-01-02T12:13:10.756Z,84.72
2018-01-02T12:14:20.798Z,84.72
2018-01-02T12:15:30.864Z,84.91
2018-01-02T12:16:40.927Z,84.91
2018-01-02T12:17:50.765Z,84.14
2018-01-02T12:19:00.888Z,84.33
2018-01-02T12:20:10.704Z,83.8
2018-01-02T12:21:20.519Z,83.7
2018-01-02T12:22:30.588Z,83.51
2018-01-02T12:23:40.660Z,83.8
2018-01-02T12:24:50.457Z,84.47
2018-01-02T12:26:00.261Z,83.99
2018-01-02T12:27:10.316Z,84.56
2018-01-02T12:28:20.127Z,84.76
2018-01-02T12:29:30.189Z,84.81
2018-01-02T12:30:39.989Z,84.66
2018-01-02T12:31:50.083Z,84.66
2018-01-02T12:33:00.138Z,83.99
2018-01-02T12:34:10.205Z,84.47
2018-01-02T12:35:20.320Z,83.8
2018-01-02T12:36:30.448Z,84.28
2018-01-02T12:37:40.260Z,84.09
2018-01-02T12:38:50.057Z,84.28
2018-01-02T12:40:00.283Z,84.62
2018-01-02T12:41:10.401Z,85
2018-01-02T12:42:20.476Z,85.19
2018-01-02T12:43:30.555Z,85.38
2018-01-02T12:44:40.601Z,85.48
2018-01-02T12:45:50.656Z,85.58
2018-01-02T12:47:00.490Z,85.58
2018-01-02T12:48:10.567Z,85.58
2018-01-02T12:49:20.412Z,85.48
2018-01-02T12:50:30.240Z,85.38
2018-01-02T12:51:40.054Z,85.29
2018-01-02T12:52:50.140Z,85.29
2018-01-02T12:54:00.260Z,85.19
2018-01-02T12:55:10.058Z,85.77
2018-01-02T12:56:20.125Z,85.58
2018-01-02T12:57:30.204Z,85.38
2018-01-02T12:58:40.287Z,84.91
2018-01-02T12:59:50.354Z,85
2018-01-02T13:01:00.418Z,85.1
2018-01-02T13:02:10.507Z,85.1
2018-01-02T13:03:20.570Z,85.05
2018-01-02T13:04:30.657Z,85.15
2018-01-02T13:05:40.499Z,85.15
2018-01-02T13:06:50.575Z,84.96
2018-01-02T13:08:00.372Z,85.05
2018-01-02T13:09:09.910Z,85.25
2018-01-02T13:10:19.977Z,85.15
2018-01-02T13:11:30.116Z,85.34
2018-01-02T13:12:40.171Z,85.15
2018-01-02T13:13:50.231Z,85.25
2018-01-02T13:15:00.047Z,85.53
2018-01-02T13:16:09.587Z,84.96
2018-01-02T13:17:19.665Z,85.25
2018-01-02T13:18:29.742Z,85.25
2018-01-02T13:19:39.800Z,85.34
2018-01-02T13:20:49.862Z,85.25
2018-01-02T13:21:59.908Z,85.15
2018-01-02T13:23:09.979Z,85.05
2018-01-02T13:24:20.092Z,85.01
2018-01-02T13:25:30.156Z,85.39
2018-01-02T13:26:40.242Z,85.11
2018-01-02T13:27:49.806Z,85.01
2018-01-02T13:28:59.921Z,85.11
2018-01-02T13:30:10.017Z,85.21
2018-01-02T13:31:19.561Z,85.39
2018-01-02T13:32:29.629Z,85.68
2018-01-02T13:33:39.441Z,85.87
2018-01-02T13:34:49.566Z,85.87
2018-01-02T13:35:59.634Z,85.77
2018-01-02T13:37:09.711Z,85.77
2018-01-02T13:38:19.526Z,85.58
2018-01-02T13:39:29.589Z,85.39
2018-01-02T13:40:39.702Z,85.58
2018-01-02T13:41:49.518Z,85.49
2018-01-02T13:42:59.570Z,85.3
2018-01-02T13:44:09.630Z,85.97
2018-01-02T13:45:19.757Z,85.58
2018-01-02T13:46:29.812Z,85.77
2018-01-02T13:47:39.865Z,85.77
2018-01-02T13:48:49.679Z,85.77
2018-01-02T13:49:59.741Z,85.73
2018-01-02T13:51:09.536Z,85.83
2018-01-02T13:52:19.580Z,85.58
2018-01-02T13:53:29.644Z,85.35
2018-01-02T13:54:39.717Z,85.35
2018-01-02T13:55:49.797Z,85.45
2018-01-02T13:56:59.876Z,85.01
2018-01-02T13:58:09.956Z,85.11
2018-01-02T13:59:20.049Z,84.92
2018-01-02T14:00:29.587Z,85.3
2018-01-02T14:01:39.662Z,85.21
2018-01-02T14:02:49.493Z,85.01
2018-01-02T14:03:59.541Z,84.97
2018-01-02T14:05:09.462Z,85.54
2018-01-02T14:06:19.249Z,85.35
2018-01-02T14:07:29.050Z,85.83
2018-01-02T14:08:38.846Z,85.73
2018-01-02T14:09:48.926Z,85.64
2018-01-02T14:10:59.057Z,85.83
2018-01-02T14:12:09.113Z,85.73
2018-01-02T14:13:19.220Z,85.83
2018-01-02T14:14:29.307Z,85.83
2018-01-02T14:15:39.374Z,86.02
2018-01-02T14:16:49.451Z,85.54
2018-01-02T14:17:59.532Z,85.54
2018-01-02T14:19:09.349Z,85.25
2018-01-02T14:20:19.410Z,85.73
2018-01-02T14:21:29.461Z,85.54
2018-01-02T14:22:39.522Z,85.93
2018-01-02T14:23:49.603Z,85.83
2018-01-02T14:24:59.671Z,85.6
2018-01-02T14:26:09.752Z,85.97
2018-01-02T14:27:19.820Z,86.07
2018-01-02T14:28:29.891Z,85.78
2018-01-02T14:29:39.698Z,86.16
2018-01-02T14:30:49.769Z,85.97
2018-01-02T14:31:59.833Z,86.26
2018-01-02T14:33:09.905Z,86.26
2018-01-02T14:34:19.990Z,86.16
2018-01-02T14:35:30.085Z,86.16
2018-01-02T14:36:40.140Z,85.97
2018-01-02T14:37:49.937Z,86.16
2018-01-02T14:38:59.983Z,86.03
2018-01-02T14:40:10.049Z,86.12
2018-01-02T14:41:20.117Z,86.22
2018-01-02T14:42:30.168Z,86.12
2018-01-02T14:43:40.252Z,86.22
2018-01-02T14:44:50.298Z,86.22
2018-01-02T14:46:00.374Z,86.12
2018-01-02T14:47:10.441Z,86.12
2018-01-02T14:48:20.522Z,86.41
2018-01-02T14:49:30.586Z,86.41
2018-01-02T14:50:40.372Z,86.03
2018-01-02T14:51:50.187Z,86.41
2018-01-02T14:53:00.310Z,86.12
2018-01-02T14:54:10.369Z,86.12
2018-01-02T14:55:20.453Z,86.03
2018-01-02T14:56:30.253Z,86.32
2018-01-02T14:57:40.055Z,86.22
2018-01-02T14:58:49.873Z,86.22
2018-01-02T14:59:59.923Z,86.32
2018-01-02T15:01:09.967Z,86.03
2018-01-02T15:02:19.779Z,85.89
2018-01-02T15:03:29.840Z,86.12
2018-01-02T15:04:39.926Z,86.08
2018-01-02T15:05:49.992Z,86.46
2018-01-02T15:07:00.067Z,85.99
2018-01-02T15:08:09.895Z,86.18
2018-01-02T15:09:19.944Z,86.46
2018-01-02T15:10:29.755Z,86.46
2018-01-02T15:11:39.594Z,86.46
2018-01-02T15:12:49.376Z,86.27
2018-01-02T15:13:59.441Z,86.08
2018-01-02T15:15:09.233Z,86.27
2018-01-02T15:16:19.124Z,86.27
2018-01-02T15:17:29.182Z,86.18
2018-01-02T15:18:38.992Z,86.08
2018-01-02T15:19:48.803Z,86.27
2018-01-02T15:20:58.870Z,86.27
2018-01-02T15:22:09.007Z,86.27
2018-01-02T15:23:19.106Z,86.08
2018-01-02T15:24:29.198Z,86.46
2018-01-02T15:25:39.275Z,86.36
2018-01-02T15:26:49.084Z,86.18
2018-01-02T15:28:00.232Z,86.18
2018-01-02T15:29:10.320Z,86.27
2018-01-02T15:30:20.169Z,86.46
2018-01-02T15:31:30.242Z,86.46
2018-01-02T15:32:40.050Z,86.84
2018-01-02T15:33:50.161Z,86.46
2018-01-02T15:35:00.246Z,86.36
2018-01-02T15:37:32.782Z,86.46
2018-01-02T15:38:42.887Z,86.84